Accueil
METAR-TAF:

METAR-TAF

Aéroports :

Burgos, Espagne

Aéroport de Burgos

latitude: 42-22N, longitude: 003-38W, altitude: 894 m

Observation

Le bulletin a été fait il y a 12 minutes, à 10:00 UTC
Vent 16 kt de est/nord-est, variant entre nord/nord-est et est
Température 7°C
Humidité 45%
Pression 1017 hPa
Visibilité 10 km ou plus
Quelques nuages à une hauteur de 3300 ft

METAR: LEBG 281000Z 06016KT 020V090 9999 FEW033 07/M04 Q1017

Heure: 12:12 (10:12 UTC)

Prévision

Le bulletin a été fait il y a 2 heures et 12 minutes, à 08:00 UTC
Prévision valable du 28 à 09 UTC au 28 à 18 UTC
Vent 13 kt de est/nord-est
Visibilité 10 km ou plus
pas de nuages en-dessous de 1500 mètres et pas de cumulonimbus.

TAF: LEBG 280800Z 2809/2818 07013KT CAVOK

Observations et prévisions météorologiques de plus de 4000 aéroports (messages METAR et TAF).

Les stations disponibles sont représentées par des disques jaunes et rouges sur la carte.

Passer la souris dessus pour voir le nom de la station.

Cliquer dessus pour voir les observations et prévisions météorologiques.

Pour changer de carte: cliquez sur les boutons verts avec une croix noire pour zoomer, sur le bouton vert avec un tiret pour effectuer un zoom arrière, ou sur les flèches vertes pour les cartes adjacentes.


METAR-TAF: